Terminal Aerodrome Forecast
Issued by NWS

Home | Current Version | Previous Version | Graphics & Text | Print | Product List | Glossary On
Versions: 1 2 3 4 5 6 7 8 9 10 11 12 13 14 15 16 17 18
000
FTUS42 KMHX 231742
TAFISO
TAF
KISO 231742Z 2318/2418 03006KT P6SM BKN025
     FM240000 VRB03KT P6SM SCT110
     FM240600 00000KT 3SM BR SCT008
     FM240900 00000KT 1SM BR BKN008
     FM241300 VRB03KT 3SM BR SCT008
     FM241500 01005KT P6SM FEW250
      AMD LTD TO CLD VIS AND WIND=

USA.gov is the U.S. government's official web portal to all federal, state and local government web resources and services.